Flood From: 21-02-2018 18:00 Until: 22-02-2018 16:00 warning for: Flood Level: Yellow info button

Although rather usual in this region, locally or potentially dangerous phenomena are expected. (such as local winds, summer thunderstorms, rising streams or high waves) Be aware and pay attention to the latest weather updates, especially if you carry out activities exposed to weather or close to a stream or shoreline. 


Meteo18 Weather Cam more information Meteo18 Weather Cam


Thunder radar more information blitzortung!


Rain radar more information rain snow radar


Visit our other weather sites:

Template documentation
and downloads

And another site



Weather Underground History page Text

Daily Summary for October 11, 2017 Units:  Metric    English   Both
« Previous Day
Next Day »
Daily Weekly Monthly Yearly Custom
  High: Low: Average:
Temperature: -17.8 °C -13.1 °C -10.2 °C
Dew Point: -17.8 °C -13.3 °C -11.6 °C
Humidity: Humidity % 58 % 86 %
Wind Speed: 0 km/h 0 km/h 1.9 km/h
Wind Gust: 0 km/h - -
Wind:- - SW
Pressure: 0 hPa 34496.6 hPa -
Precipitation: 7.62 mm    
Historical Graphs
 
 
Tabular Data for October 11, 2017
Time Temperature Dew Point Pressure Wind Wind Speed Wind Gust Humidity Rainfall Rate (Hourly)
-17.8 °C -17.8 °C 0 hPa Calm     Humidity % 0 mm
00:02 -10.3 °C -11.1 °C 34625.2 hPa Calm     92 % 0 mm
00:12 -10.4 °C -11 °C 34625.2 hPa Calm     93 % 0 mm
00:17 -10.4 °C -11.1 °C 34625.2 hPa Calm     93 % 0 mm
00:22 -10.4 °C -11.1 °C 34611.7 hPa Calm     93 % 0 mm
00:32 -10.4 °C -11.1 °C 34611.7 hPa Calm     93 % 0 mm
00:42 -10.5 °C -11.1 °C 34611.7 hPa Calm     93 % 0 mm
00:47 -10.5 °C -11.1 °C 34611.7 hPa Calm     93 % 0 mm
00:52 -10.6 °C -11.1 °C 34611.7 hPa Calm     94 % 0 mm
00:57 -10.6 °C -11.1 °C 34611.7 hPa Calm     94 % 0 mm
01:02 -10.6 °C -11.1 °C 34611.7 hPa Calm     94 % 0 mm
01:07 -10.6 °C -11.1 °C 34611.7 hPa Calm     94 % 0 mm
01:12 -10.6 °C -11.1 °C 34611.7 hPa Calm     94 % 0 mm
01:17 -10.6 °C -11.1 °C 34601.5 hPa Calm     94 % 0 mm
01:22 -10.7 °C -11.2 °C 34601.5 hPa Calm     94 % 0 mm
01:27 -10.7 °C -11.2 °C 34601.5 hPa Calm     94 % 0 mm
01:32 -10.7 °C -11.2 °C 34601.5 hPa Calm     94 % 0 mm
01:42 -10.7 °C -11.2 °C 34601.5 hPa Calm     94 % 0 mm
01:47 -10.8 °C -11.3 °C 34601.5 hPa Calm     94 % 0 mm
01:52 -10.8 °C -11.3 °C 34601.5 hPa Calm     95 % 0 mm
01:57 -10.9 °C -11.4 °C 34601.5 hPa Calm     95 % 0 mm
02:02 -11 °C -11.4 °C 34611.7 hPa Calm     95 % 0 mm
02:12 -11 °C -11.4 °C 34611.7 hPa Calm     95 % 0 mm
02:17 -11 °C -11.3 °C 34611.7 hPa Calm     96 % 0 mm
02:22 -11.1 °C -11.6 °C 34601.5 hPa Calm     95 % 0 mm
02:27 -11.2 °C -11.5 °C 34601.5 hPa Calm     96 % 0 mm
02:32 -11.2 °C -11.5 °C 34601.5 hPa Calm     96 % 0 mm
02:37 -11.2 °C -11.6 °C 34601.5 hPa Calm     96 % 0 mm
02:42 -11.3 °C -11.8 °C 34601.5 hPa Calm     95 % 0 mm
02:47 -11.4 °C -11.7 °C 34601.5 hPa Calm   2.6 km/h 96 % 0 mm
02:52 -11.3 °C -11.7 °C 34601.5 hPa Calm   2.6 km/h 96 % 0 mm
02:57 -11.3 °C -11.6 °C 34601.5 hPa Calm   2.6 km/h 96 % 0 mm
03:02 -11.3 °C -11.7 °C 34601.5 hPa Calm     96 % 0 mm
03:07 -11.4 °C -11.8 °C 34601.5 hPa Calm     96 % 0 mm
03:12 -11.6 °C -11.9 °C 34601.5 hPa Calm     96 % 0 mm
03:17 -11.6 °C -11.9 °C 34601.5 hPa Calm     96 % 0 mm
03:22 -11.7 °C -12 °C 34601.5 hPa Calm     96 % 0 mm
03:27 -11.7 °C -12.1 °C 34601.5 hPa Calm     96 % 0 mm
03:32 -11.7 °C -12 °C 34601.5 hPa Calm     97 % 0 mm
03:37 -11.6 °C -11.9 °C 34601.5 hPa Calm     97 % 0 mm
03:42 -11.7 °C -11.9 °C 34601.5 hPa Calm     97 % 0 mm
03:47 -11.8 °C -12.1 °C 34591.4 hPa Calm     96 % 0 mm
03:52 -11.8 °C -12.1 °C 34591.4 hPa Calm     97 % 0 mm
03:57 -11.7 °C -12 °C 34591.4 hPa Calm     97 % 0 mm
04:02 -11.8 °C -12.1 °C 34591.4 hPa Calm     96 % 0 mm
04:07 -11.8 °C -12.2 °C 34591.4 hPa Calm     96 % 0 mm
04:12 -11.9 °C -12.2 °C 34591.4 hPa Calm     96 % 0 mm
04:17 -11.9 °C -12.2 °C 34591.4 hPa Calm     96 % 0 mm
04:22 -12 °C -12.3 °C 34591.4 hPa Calm     96 % 0 mm
04:32 -12.1 °C -12.4 °C 34591.4 hPa Calm     96 % 0 mm
04:37 -12.1 °C -12.3 °C 34591.4 hPa Calm     97 % 0 mm
04:42 -12.1 °C -12.3 °C 34591.4 hPa Calm   2.6 km/h 97 % 0 mm
04:52 -12.2 °C -12.5 °C 34577.8 hPa Calm   2.6 km/h 96 % 0 mm
04:57 -12.2 °C -12.4 °C 34591.4 hPa Calm   2.6 km/h 97 % 0 mm
05:02 -12.3 °C -12.6 °C 34577.8 hPa Calm   2.6 km/h 96 % 0 mm
05:07 -12.3 °C -12.6 °C 34577.8 hPa Calm   2.6 km/h 97 % 0 mm
05:12 -12.2 °C -12.4 °C 34577.8 hPa Calm   2.6 km/h 97 % 0 mm
05:22 -12.3 °C -12.6 °C 34577.8 hPa Calm   2.6 km/h 97 % 0 mm
05:32 -12.4 °C -12.8 °C 34577.8 hPa Calm     96 % 0 mm
05:42 -12.6 °C -12.8 °C 34577.8 hPa Calm     97 % 0 mm
05:47 -12.6 °C -12.9 °C 34577.8 hPa Calm     97 % 0 mm
05:52 -12.7 °C -12.9 °C 34577.8 hPa Calm     97 % 0 mm
05:57 -12.7 °C -13 °C 34577.8 hPa Calm   2.6 km/h 97 % 0 mm
06:02 -12.7 °C -13 °C 34577.8 hPa Calm   2.6 km/h 97 % 0 mm
06:12 -12.7 °C -13 °C 34577.8 hPa Calm   2.6 km/h 97 % 0 mm
06:17 -12.7 °C -13 °C 34577.8 hPa Calm     97 % 0 mm
06:22 -12.7 °C -13 °C 34577.8 hPa Calm     97 % 0 mm
06:32 -12.7 °C -13 °C 34577.8 hPa Calm     97 % 0 mm
06:42 -12.8 °C -13.1 °C 34577.8 hPa Calm     97 % 0 mm
06:47 -12.8 °C -13.1 °C 34577.8 hPa Calm     97 % 0 mm
06:52 -12.9 °C -13.2 °C 34577.8 hPa Calm     97 % 0 mm
07:12 -12.9 °C -13.2 °C 34577.8 hPa Calm     97 % 0 mm
07:17 -12.9 °C -13.2 °C 34577.8 hPa Calm     97 % 0 mm
07:22 -13.1 °C -13.3 °C 34577.8 hPa Calm     97 % 0 mm
07:32 -13.1 °C -13.3 °C 34577.8 hPa Calm     97 % 0 mm
17:37 -5.9 °C -10.7 °C 34496.6 hPa SSW 10.3 km/h 31.1 km/h 58 % 0 mm
17:42 -5.9 °C -10.5 °C 34496.6 hPa SSW 7.7 km/h 20.8 km/h 59 % 0 mm
17:47 -5.9 °C -10.4 °C 34496.6 hPa SW 10.3 km/h 28.5 km/h 60 % 0 mm
17:52 -6 °C -10.8 °C 34496.6 hPa SSW 10.3 km/h 28.5 km/h 58 % 0 mm
17:57 -6 °C -10.5 °C 34496.6 hPa South 12.9 km/h 25.9 km/h 60 % 0 mm
18:02 -6 °C -10.6 °C 34496.6 hPa SW 5.1 km/h 25.9 km/h 59 % 0 mm
18:07 -6.1 °C -10.6 °C 34496.6 hPa WSW 5.1 km/h 25.9 km/h 60 % 0 mm
18:12 -6.1 °C -10.6 °C 34496.6 hPa SSW 5.1 km/h 18.2 km/h 60 % 0 mm
18:17 -6.2 °C -10.5 °C 34496.6 hPa SSW 5.1 km/h 18.2 km/h 61 % 0 mm
18:22 -6.2 °C -10.4 °C 34496.6 hPa SSW 2.6 km/h 18.2 km/h 62 % 0 mm
18:27 -6.2 °C -10.3 °C 34496.6 hPa SW 2.6 km/h 10.3 km/h 63 % 0 mm
18:32 -6.3 °C -10.2 °C 34496.6 hPa SW 2.6 km/h 10.3 km/h 64 % 0 mm
18:42 -6.8 °C -10.4 °C 34510.1 hPa SW 2.6 km/h 7.7 km/h 66 % 0 mm
18:52 -7 °C -10.5 °C 34496.6 hPa SSW 2.6 km/h 5.1 km/h 67 % 0 mm
18:57 -7.1 °C -10.5 °C 34496.6 hPa Calm   5.1 km/h 68 % 0 mm
19:02 -7.3 °C -10.5 °C 34496.6 hPa Calm   5.1 km/h 69 % 0 mm
19:07 -7.4 °C -10.6 °C 34510.1 hPa Calm   2.6 km/h 70 % 0 mm
19:12 -7.7 °C -10.5 °C 34510.1 hPa Calm   2.6 km/h 72 % 0 mm
19:17 -7.8 °C -10.7 °C 34510.1 hPa Calm   5.1 km/h 72 % 0 mm
19:22 -7.9 °C -10.7 °C 34510.1 hPa Calm   5.1 km/h 73 % 0 mm
19:27 -8.1 °C -10.7 °C 34510.1 hPa SSW 2.6 km/h 5.1 km/h 74 % 0 mm
19:37 -8.4 °C -10.9 °C 34510.1 hPa SW 5.1 km/h 5.1 km/h 75 % 0 mm
19:42 -8.3 °C -10.8 °C 34510.1 hPa Calm   7.7 km/h 75 % 0 mm
19:47 -8.3 °C -10.8 °C 34510.1 hPa SW 2.6 km/h 7.7 km/h 75 % 0 mm
19:52 -8.3 °C -10.9 °C 34510.1 hPa SW 2.6 km/h 7.7 km/h 74 % 0 mm
19:57 -8.2 °C -10.8 °C 34510.1 hPa SSW 2.6 km/h 7.7 km/h 74 % 0 mm
20:02 -8.3 °C -10.9 °C 34520.3 hPa Calm   5.1 km/h 74 % 0 mm
20:12 -8.4 °C -10.8 °C 34510.1 hPa SW 2.6 km/h 5.1 km/h 76 % 0 mm
20:22 -8.7 °C -11 °C 34520.3 hPa Calm   5.1 km/h 76 % 0 mm
20:27 -8.8 °C -11 °C 34520.3 hPa Calm   5.1 km/h 77 % 0 mm
20:37 -9 °C -11 °C 34520.3 hPa SW 2.6 km/h 2.6 km/h 79 % 0 mm
20:42 -9 °C -10.9 °C 34520.3 hPa West 2.6 km/h 5.1 km/h 80 % 0 mm
20:47 -9.1 °C -10.9 °C 34520.3 hPa West 2.6 km/h 5.1 km/h 81 % 0 mm
20:52 -9.1 °C -10.9 °C 34533.8 hPa Calm   5.1 km/h 81 % 0 mm
20:57 -9.1 °C -10.9 °C 34533.8 hPa WSW 5.1 km/h 7.7 km/h 81 % 0 mm
21:07 -8.9 °C -10.8 °C 34533.8 hPa SW 5.1 km/h 10.3 km/h 81 % 0 mm
21:17 -8.9 °C -10.8 °C 34533.8 hPa SW 2.6 km/h 10.3 km/h 80 % 0 mm
21:27 -9 °C -10.8 °C 34533.8 hPa Calm   7.7 km/h 81 % 0 mm
21:32 -9.2 °C -11 °C 34533.8 hPa NE 2.6 km/h 7.7 km/h 81 % 0 mm
21:42 -9.7 °C -11.2 °C 34533.8 hPa Calm   2.6 km/h 84 % 0 mm
21:47 -9.7 °C -11.2 °C 34533.8 hPa Calm   2.6 km/h 84 % 0 mm
21:52 -9.8 °C -11.2 °C 34544 hPa Calm   2.6 km/h 85 % 0 mm
21:57 -9.9 °C -11.3 °C 34544 hPa Calm   2.6 km/h 85 % 0 mm
22:02 -10 °C -11.3 °C 34544 hPa Calm   2.6 km/h 86 % 0 mm
22:12 -10.2 °C -11.4 °C 34544 hPa South 2.6 km/h 5.1 km/h 86 % 0 mm
22:17 -10.3 °C -11.5 °C 34544 hPa South 2.6 km/h 5.1 km/h 87 % 0 mm
22:22 -10.4 °C -11.6 °C 34544 hPa South 2.6 km/h 5.1 km/h 87 % 0 mm
22:27 -10.6 °C -11.6 °C 34544 hPa Calm   5.1 km/h 88 % 0 mm
22:32 -10.6 °C -11.7 °C 34544 hPa Calm   5.1 km/h 88 % 0 mm
22:37 -10.6 °C -11.6 °C 34544 hPa Calm   5.1 km/h 89 % 0 mm
22:42 -10.6 °C -11.6 °C 34544 hPa Calm   2.6 km/h 89 % 0 mm
22:47 -10.6 °C -11.6 °C 34544 hPa Calm   2.6 km/h 89 % 0 mm
22:52 -10.6 °C -11.5 °C 34544 hPa Calm   2.6 km/h 90 % 0 mm
22:57 -10.6 °C -11.4 °C 34554.1 hPa SSW 2.6 km/h 5.1 km/h 90 % 0 mm
23:02 -10.6 °C -11.6 °C 34554.1 hPa South 2.6 km/h 5.1 km/h 89 % 0 mm
23:07 -10.3 °C -11.4 °C 34554.1 hPa SSW 7.7 km/h 15.6 km/h 88 % 0 mm
23:12 -10.1 °C -11.3 °C 34554.1 hPa SSW 7.7 km/h 20.8 km/h 86 % 0 mm
23:17 -9.8 °C -11.4 °C 34554.1 hPa WSW 18.2 km/h 20.8 km/h 83 % 0 mm
23:22 -9.5 °C -11.2 °C 34554.1 hPa SSW 7.7 km/h 20.8 km/h 82 % 0 mm
23:27 -9.2 °C -11.1 °C 34567.7 hPa WSW 10.3 km/h 28.5 km/h 80 % 0 mm
23:32 -9.1 °C -11.1 °C 34567.7 hPa WSW 7.7 km/h 28.5 km/h 79 % 0 mm
23:42 -8.9 °C -11.1 °C 34567.7 hPa WSW 10.3 km/h 28.5 km/h 78 % 0 mm
23:47 -8.9 °C -10.9 °C 34567.7 hPa WSW 12.9 km/h 36.2 km/h 79 % 0 mm
23:52 -8.9 °C -10.9 °C 34567.7 hPa WSW 15.6 km/h 36.2 km/h 79 % 0 mm
23:57 -9 °C -10.9 °C 34567.7 hPa WSW 31.1 km/h 36.2 km/h 80 % 0 mm
Meteo18
Compliments of Weather Underground - 4 mb

Script developed by  Jim McMurry - jmcmurry@mwt.net Adapted for the template by  Wim van der Kuil - Leuven-Template.eu

You find our weather info also at:

European Weather Network

Weather Underground

Equipment we use:

Weather-station
Davis Vue

Weather-program
Meteobridge

Weather-server
Raspberry PI 2 B+

Provider
1 and 1

Davis Vue

Meteobridge

Raspberry PI 2 B+

1 and 1